Time;durP1;ratioP1;P1;durP2;ratioP2;P2;SDS_P1;SDS_P2;PMS_P1;PMS_P2;Temp;Humidity;BMP_temperature;BMP_pressure;BME280_temperature;BME280_humidity;BME280_pressure;Samples;Min_cycle;Max_cycle;Signal;HPM_P1;HPM_P2
2022/01/23 00:02:23;;;;;;;156.13;62.87;;;;;;;;;;4951323;28;20446;-82
2022/01/23 00:04:49;;;;;;;162.10;64.93;;;;;;;;;;4948923;28;20432;-82
2022/01/23 00:07:16;;;;;;;143.93;60.93;;;;;;;;;;4947532;28;21296;-82
2022/01/23 00:09:42;;;;;;;156.30;62.80;;;;;;;;;;4949155;28;20433;-82
2022/01/23 00:12:13;;;;;;;162.20;63.50;;;;;;;;;;4963017;28;20434;-82
2022/01/23 00:17:33;;;;;;;188.40;70.63;;;;;;;;;;4954562;28;20437;-82
2022/01/23 00:20:00;;;;;;;179.27;67.90;;;;;;;;;;4951930;28;20418;-82
2022/01/23 00:22:35;;;;;;;185.60;69.13;;;;;;;;;;4950496;28;20442;-82
2022/01/23 00:30:32;;;;;;;177.67;66.23;;;;;;;;;;4956396;28;20437;-82
2022/01/23 00:33:03;;;;;;;179.70;69.60;;;;;;;;;;4956071;28;20430;-82
2022/01/23 00:35:29;;;;;;;166.50;64.50;;;;;;;;;;4957735;28;20447;-82
2022/01/23 00:37:56;;;;;;;164.77;64.83;;;;;;;;;;4956555;28;20430;-82
2022/01/23 00:40:23;;;;;;;168.53;65.30;;;;;;;;;;4955753;28;20437;-82
2022/01/23 00:42:49;;;;;;;167.03;64.07;;;;;;;;;;4958696;28;20445;-82
2022/01/23 00:45:33;;;;;;;178.27;64.93;;;;;;;;;;4948175;28;20430;-82
2022/01/23 00:48:08;;;;;;;168.90;64.70;;;;;;;;;;4954448;28;20422;-82
2022/01/23 00:50:38;;;;;;;173.23;64.93;;;;;;;;;;4955070;28;20417;-82
2022/01/23 00:53:08;;;;;;;157.57;63.07;;;;;;;;;;4953493;28;20437;-82
2022/01/23 00:55:34;;;;;;;148.13;58.93;;;;;;;;;;4956712;28;20441;-82
2022/01/23 00:58:00;;;;;;;152.30;59.90;;;;;;;;;;4951492;28;20519;-82
2022/01/23 01:00:26;;;;;;;152.20;61.37;;;;;;;;;;4954239;28;20513;-82
2022/01/23 01:02:52;;;;;;;144.73;58.73;;;;;;;;;;4954816;28;20441;-82
2022/01/23 01:05:18;;;;;;;135.00;54.33;;;;;;;;;;4952696;28;21279;-82
2022/01/23 01:07:44;;;;;;;134.27;53.07;;;;;;;;;;4956828;28;20527;-82
2022/01/23 01:10:25;;;;;;;128.37;52.63;;;;;;;;;;4952933;28;20501;-82
2022/01/23 01:12:56;;;;;;;125.33;50.40;;;;;;;;;;4953455;28;20417;-82
2022/01/23 01:15:30;;;;;;;110.07;46.80;;;;;;;;;;4955063;28;20453;-82
2022/01/23 01:34:01;;;;;;;109.47;46.43;;;;;;;;;;4955140;28;20480;-82
2022/01/23 01:38:59;;;;;;;113.93;47.57;;;;;;;;;;4958138;28;20461;-82
2022/01/23 01:41:26;;;;;;;107.13;44.47;;;;;;;;;;4954390;28;20422;-82
2022/01/23 01:43:53;;;;;;;110.53;45.23;;;;;;;;;;4955670;28;20438;-82
2022/01/23 01:46:19;;;;;;;119.27;46.50;;;;;;;;;;4955609;28;20449;-82
2022/01/23 01:48:45;;;;;;;112.37;45.27;;;;;;;;;;4955999;28;20444;-82
2022/01/23 01:51:15;;;;;;;107.20;44.97;;;;;;;;;;4957538;28;21231;-82
2022/01/23 01:53:48;;;;;;;113.37;47.40;;;;;;;;;;4952529;28;21322;-82
2022/01/23 01:56:14;;;;;;;118.10;49.80;;;;;;;;;;4958674;28;20875;-82
2022/01/23 02:09:16;;;;;;;111.83;46.87;;;;;;;;;;4955818;28;21385;-82
2022/01/23 02:14:16;;;;;;;107.00;44.93;;;;;;;;;;4956685;28;21282;-82
2022/01/23 02:22:37;;;;;;;111.83;44.73;;;;;;;;;;4956213;28;20441;-82
2022/01/23 02:25:29;;;;;;;94.83;41.80;;;;;;;;;;4957777;28;20468;-82
2022/01/23 02:55:24;;;;;;;106.27;42.23;;;;;;;;;;4954350;28;21265;-82
2022/01/23 02:57:54;;;;;;;87.33;38.10;;;;;;;;;;4954628;28;20536;-82
2022/01/23 03:00:24;;;;;;;99.93;44.20;;;;;;;;;;4955294;28;20456;-82
2022/01/23 03:02:53;;;;;;;96.37;42.83;;;;;;;;;;4951610;28;20438;-82
2022/01/23 03:08:58;;;;;;;94.50;40.57;;;;;;;;;;4953607;28;20461;-82
2022/01/23 03:11:00;;;;;;;97.83;41.23;;;;;;;;;;4954557;28;20433;-82
2022/01/23 03:25:39;;;;;;;99.23;44.03;;;;;;;;;;4958484;28;20437;-82
2022/01/23 03:32:28;;;;;;;108.03;45.50;;;;;;;;;;4957188;28;20430;-82
2022/01/23 03:34:55;;;;;;;116.77;47.43;;;;;;;;;;4952597;28;20474;-82
2022/01/23 03:37:21;;;;;;;111.20;45.10;;;;;;;;;;4953862;28;20441;-82
2022/01/23 03:39:47;;;;;;;116.40;46.00;;;;;;;;;;4955285;28;20437;-82
2022/01/23 03:42:13;;;;;;;108.63;45.83;;;;;;;;;;4952287;28;20437;-82
2022/01/23 03:44:48;;;;;;;112.30;45.50;;;;;;;;;;4953850;28;20437;-82
2022/01/23 03:49:40;;;;;;;116.60;47.37;;;;;;;;;;4957700;28;20419;-82
2022/01/23 03:52:07;;;;;;;116.37;47.03;;;;;;;;;;4955548;28;20445;-81
2022/01/23 03:54:34;;;;;;;107.43;45.10;;;;;;;;;;4954898;28;20434;-82
2022/01/23 03:57:01;;;;;;;103.70;43.90;;;;;;;;;;4952529;28;20480;-82
2022/01/23 03:59:28;;;;;;;107.57;45.73;;;;;;;;;;4954003;28;20474;-81
2022/01/23 04:01:54;;;;;;;121.63;49.30;;;;;;;;;;4954964;28;20437;-81
2022/01/23 04:04:40;;;;;;;114.00;44.77;;;;;;;;;;4954403;28;20450;-82
2022/01/23 04:07:07;;;;;;;103.83;45.40;;;;;;;;;;4955081;28;20457;-82
2022/01/23 04:09:33;;;;;;;106.97;44.80;;;;;;;;;;4955222;28;20435;-82
2022/01/23 04:12:00;;;;;;;107.83;47.53;;;;;;;;;;4951021;28;20436;-82
2022/01/23 04:14:28;;;;;;;116.60;46.33;;;;;;;;;;4954714;28;20454;-82
2022/01/23 05:00:06;;;;;;;134.27;50.93;;;;;;;;;;4952871;28;20457;-82
2022/01/23 05:05:20;;;;;;;128.33;49.37;;;;;;;;;;4953837;28;20496;-82
2022/01/23 05:07:47;;;;;;;132.60;51.90;;;;;;;;;;4951515;28;20465;-82
2022/01/23 05:10:13;;;;;;;133.30;51.03;;;;;;;;;;4950745;28;20430;-82
2022/01/23 05:12:39;;;;;;;136.23;53.53;;;;;;;;;;4967272;28;20457;-82
2022/01/23 05:15:07;;;;;;;131.33;51.17;;;;;;;;;;4952683;28;21388;-82
2022/01/23 05:17:34;;;;;;;144.40;54.87;;;;;;;;;;4953765;28;20582;-82
2022/01/23 05:20:00;;;;;;;189.30;66.80;;;;;;;;;;4957037;28;20438;-82
2022/01/23 05:22:37;;;;;;;194.33;67.63;;;;;;;;;;4956407;28;20490;-82
2022/01/23 05:25:13;;;;;;;177.73;65.53;;;;;;;;;;4954858;28;20418;-82
2022/01/23 05:27:40;;;;;;;181.20;65.23;;;;;;;;;;4955531;28;20449;-82
2022/01/23 05:30:06;;;;;;;201.23;71.63;;;;;;;;;;4954103;28;20429;-82
2022/01/23 05:32:36;;;;;;;248.50;83.57;;;;;;;;;;4957999;28;20471;-82
2022/01/23 05:35:03;;;;;;;239.50;81.50;;;;;;;;;;4957153;28;20431;-82
2022/01/23 05:37:29;;;;;;;244.17;81.47;;;;;;;;;;4955353;28;20438;-82
2022/01/23 05:39:55;;;;;;;273.37;87.73;;;;;;;;;;4955190;28;21153;-82
2022/01/23 05:42:21;;;;;;;267.27;83.73;;;;;;;;;;4955582;28;20440;-82
2022/01/23 05:44:47;;;;;;;297.60;94.37;;;;;;;;;;4955173;28;20507;-82
2022/01/23 05:47:14;;;;;;;209.23;73.17;;;;;;;;;;4958122;28;20482;-82
2022/01/23 05:49:40;;;;;;;264.43;88.10;;;;;;;;;;4958844;28;20430;-82
2022/01/23 05:52:07;;;;;;;279.03;88.07;;;;;;;;;;4957122;28;20426;-81
2022/01/23 05:54:33;;;;;;;248.97;85.63;;;;;;;;;;4957115;28;20430;-82
2022/01/23 05:56:59;;;;;;;277.23;87.53;;;;;;;;;;4957393;28;20438;-82
2022/01/23 05:59:26;;;;;;;260.57;84.80;;;;;;;;;;4971580;28;20469;-82
2022/01/23 06:01:53;;;;;;;248.97;83.70;;;;;;;;;;4956270;28;20441;-82
2022/01/23 06:04:20;;;;;;;254.73;85.00;;;;;;;;;;4972630;28;21354;-82
2022/01/23 06:06:46;;;;;;;230.90;77.20;;;;;;;;;;4960087;28;20572;-82
2022/01/23 06:09:12;;;;;;;226.87;80.33;;;;;;;;;;4960223;28;20753;-81
2022/01/23 06:11:38;;;;;;;251.87;81.57;;;;;;;;;;4957550;28;20487;-82
2022/01/23 06:14:06;;;;;;;193.60;74.13;;;;;;;;;;4956804;28;20496;-82
2022/01/23 06:16:33;;;;;;;230.23;78.23;;;;;;;;;;4969050;28;20438;-82
2022/01/23 06:18:59;;;;;;;174.30;69.67;;;;;;;;;;4972121;28;20875;-81
2022/01/23 06:21:26;;;;;;;178.37;70.27;;;;;;;;;;4958948;28;20536;-81
2022/01/23 06:24:03;;;;;;;176.93;71.40;;;;;;;;;;4958258;28;20474;-81
2022/01/23 06:26:39;;;;;;;220.10;80.17;;;;;;;;;;4954467;28;20450;-82
2022/01/23 06:29:06;;;;;;;212.97;76.60;;;;;;;;;;4957195;28;20486;-81
2022/01/23 06:31:32;;;;;;;191.60;73.20;;;;;;;;;;4960250;28;20530;-82
2022/01/23 06:34:00;;;;;;;234.87;81.27;;;;;;;;;;4955027;28;20422;-82
2022/01/23 06:36:26;;;;;;;183.00;71.87;;;;;;;;;;4956942;28;20430;-82
2022/01/23 06:38:52;;;;;;;250.47;85.70;;;;;;;;;;4954019;28;20426;-82
2022/01/23 06:41:18;;;;;;;171.50;71.20;;;;;;;;;;4956147;28;20421;-82
2022/01/23 06:43:44;;;;;;;165.77;71.00;;;;;;;;;;4953461;28;20432;-82
2022/01/23 06:46:10;;;;;;;290.90;88.37;;;;;;;;;;4957556;28;21354;-82
2022/01/23 06:48:36;;;;;;;201.40;79.30;;;;;;;;;;4954895;28;20445;-82
2022/01/23 06:51:02;;;;;;;167.13;69.90;;;;;;;;;;4954217;28;20415;-82
2022/01/23 06:53:29;;;;;;;187.00;76.53;;;;;;;;;;4967395;28;20438;-83
2022/01/23 06:55:55;;;;;;;353.47;103.13;;;;;;;;;;4951455;28;20432;-83
2022/01/23 06:58:21;;;;;;;195.27;74.97;;;;;;;;;;4952257;28;20453;-84
2022/01/23 07:00:47;;;;;;;291.43;89.87;;;;;;;;;;4957926;28;20664;-83
2022/01/23 07:03:14;;;;;;;282.10;85.20;;;;;;;;;;4954173;28;20423;-82
2022/01/23 07:05:40;;;;;;;196.53;74.50;;;;;;;;;;4954563;28;20418;-81
2022/01/23 07:08:06;;;;;;;218.13;75.63;;;;;;;;;;4954275;28;20434;-82
2022/01/23 07:10:32;;;;;;;265.80;82.90;;;;;;;;;;4951435;28;20438;-81
2022/01/23 07:12:58;;;;;;;236.80;79.37;;;;;;;;;;4952844;28;20430;-81
2022/01/23 07:15:25;;;;;;;240.37;81.27;;;;;;;;;;4954361;28;21346;-82
2022/01/23 07:17:52;;;;;;;159.90;64.83;;;;;;;;;;4952946;28;21282;-82
2022/01/23 07:20:18;;;;;;;152.73;63.43;;;;;;;;;;4947877;28;20502;-82
2022/01/23 07:22:44;;;;;;;191.80;76.33;;;;;;;;;;4954098;28;20434;-81
2022/01/23 07:25:10;;;;;;;161.73;69.73;;;;;;;;;;4955416;28;21116;-81
2022/01/23 07:27:48;;;;;;;186.50;76.30;;;;;;;;;;4952954;28;20538;-81
2022/01/23 07:33:07;;;;;;;150.60;64.43;;;;;;;;;;4954864;28;20501;-83
2022/01/23 07:35:33;;;;;;;188.07;74.73;;;;;;;;;;4953738;28;20496;-82
2022/01/23 07:38:00;;;;;;;175.70;69.57;;;;;;;;;;4948743;28;20422;-83
2022/01/23 07:40:26;;;;;;;218.47;82.00;;;;;;;;;;4952511;28;20430;-83
2022/01/23 07:42:52;;;;;;;210.80;80.13;;;;;;;;;;4949469;28;20851;-83
2022/01/23 07:45:18;;;;;;;179.27;68.60;;;;;;;;;;4953121;28;20436;-82
2022/01/23 07:47:44;;;;;;;197.67;70.47;;;;;;;;;;4955164;28;20446;-81
2022/01/23 07:50:11;;;;;;;215.17;74.27;;;;;;;;;;4956145;28;20414;-81
2022/01/23 07:52:38;;;;;;;466.20;96.10;;;;;;;;;;4969395;28;20444;-81
2022/01/23 07:55:08;;;;;;;287.60;78.57;;;;;;;;;;4953698;28;20421;-82
2022/01/23 07:57:35;;;;;;;295.33;84.40;;;;;;;;;;4954543;28;20540;-82
2022/01/23 08:00:01;;;;;;;194.57;72.17;;;;;;;;;;4952774;28;21290;-82
2022/01/23 08:02:27;;;;;;;221.77;74.27;;;;;;;;;;4952199;28;20440;-82
2022/01/23 08:04:53;;;;;;;222.47;75.47;;;;;;;;;;4953649;28;20434;-82
2022/01/23 08:07:31;;;;;;;205.33;72.73;;;;;;;;;;4950095;28;20453;-82
2022/01/23 08:10:01;;;;;;;195.67;71.03;;;;;;;;;;4950610;28;20425;-82
2022/01/23 08:12:28;;;;;;;253.47;85.53;;;;;;;;;;4951178;28;20509;-82
2022/01/23 08:14:54;;;;;;;264.33;86.43;;;;;;;;;;4951964;28;20450;-82
2022/01/23 08:17:24;;;;;;;223.60;85.23;;;;;;;;;;4953881;28;20426;-82
2022/01/23 08:19:51;;;;;;;265.67;92.93;;;;;;;;;;4954057;28;21508;-82
2022/01/23 08:22:17;;;;;;;230.23;81.50;;;;;;;;;;4951969;28;20456;-82
2022/01/23 08:24:43;;;;;;;206.03;77.17;;;;;;;;;;4953831;28;21065;-83
2022/01/23 08:27:09;;;;;;;203.27;75.17;;;;;;;;;;4950887;28;20457;-82
2022/01/23 08:29:35;;;;;;;198.87;75.93;;;;;;;;;;4952075;28;20434;-82
2022/01/23 08:32:01;;;;;;;265.13;86.43;;;;;;;;;;4965299;28;20426;-82
2022/01/23 08:34:27;;;;;;;272.27;84.87;;;;;;;;;;4950286;28;20434;-81
2022/01/23 08:36:55;;;;;;;229.60;79.87;;;;;;;;;;4949946;28;20512;-82
2022/01/23 08:39:24;;;;;;;215.87;76.67;;;;;;;;;;4966003;28;21138;-82
2022/01/23 08:41:50;;;;;;;264.63;83.50;;;;;;;;;;4950120;28;20451;-83
2022/01/23 08:44:17;;;;;;;224.40;79.13;;;;;;;;;;4951914;28;20442;-83
2022/01/23 08:46:43;;;;;;;260.67;83.40;;;;;;;;;;4951064;28;20465;-82
2022/01/23 08:49:09;;;;;;;223.53;75.60;;;;;;;;;;4952091;28;20457;-82
2022/01/23 08:51:36;;;;;;;391.10;100.30;;;;;;;;;;4957651;28;20772;-81
2022/01/23 08:54:03;;;;;;;184.93;67.83;;;;;;;;;;4953867;28;20520;-81
2022/01/23 08:56:30;;;;;;;209.70;74.27;;;;;;;;;;4955272;28;20422;-83
2022/01/23 08:58:56;;;;;;;220.53;76.30;;;;;;;;;;4956810;28;20519;-82
2022/01/23 09:01:23;;;;;;;228.13;79.27;;;;;;;;;;4952815;28;20464;-82
2022/01/23 09:03:49;;;;;;;182.27;69.50;;;;;;;;;;4949495;28;20432;-81
2022/01/23 09:06:15;;;;;;;189.07;72.43;;;;;;;;;;4954955;28;20885;-82
2022/01/23 09:08:42;;;;;;;170.67;70.20;;;;;;;;;;4956833;28;20528;-82
2022/01/23 09:11:13;;;;;;;217.03;78.13;;;;;;;;;;4956559;28;20440;-83
2022/01/23 09:16:06;;;;;;;172.13;68.50;;;;;;;;;;4953272;28;20516;-83
2022/01/23 09:18:33;;;;;;;193.33;75.17;;;;;;;;;;4954824;28;21442;-83
2022/01/23 09:20:59;;;;;;;190.53;76.57;;;;;;;;;;4954187;28;20425;-84
2022/01/23 09:23:25;;;;;;;203.23;80.90;;;;;;;;;;4954441;28;20430;-82
2022/01/23 09:25:52;;;;;;;198.03;75.10;;;;;;;;;;4948373;28;20476;-82
2022/01/23 09:28:19;;;;;;;171.40;69.43;;;;;;;;;;4952029;28;20433;-82
2022/01/23 09:30:50;;;;;;;188.07;76.07;;;;;;;;;;4950503;28;20484;-82
2022/01/23 09:33:17;;;;;;;165.27;67.90;;;;;;;;;;4956216;28;20407;-82
2022/01/23 09:35:43;;;;;;;184.50;75.47;;;;;;;;;;4949491;28;20613;-83
2022/01/23 09:38:09;;;;;;;195.30;73.50;;;;;;;;;;4952839;28;20945;-82
2022/01/23 09:40:38;;;;;;;183.00;74.00;;;;;;;;;;4952076;28;20445;-82
2022/01/23 09:43:09;;;;;;;174.50;71.30;;;;;;;;;;4955659;28;21067;-83
2022/01/23 09:45:35;;;;;;;163.93;69.20;;;;;;;;;;4955555;28;21148;-82
2022/01/23 09:48:02;;;;;;;186.03;74.37;;;;;;;;;;4951778;28;21057;-82
2022/01/23 09:50:30;;;;;;;164.93;71.00;;;;;;;;;;4953459;28;20437;-82
2022/01/23 09:52:57;;;;;;;176.63;72.37;;;;;;;;;;4954962;28;20426;-82
2022/01/23 09:55:25;;;;;;;175.20;70.90;;;;;;;;;;4950308;28;20434;-82
2022/01/23 09:57:52;;;;;;;185.27;74.93;;;;;;;;;;4954029;28;20473;-82
2022/01/23 10:00:19;;;;;;;170.97;69.63;;;;;;;;;;4966463;28;20434;-82
2022/01/23 10:02:50;;;;;;;189.50;73.97;;;;;;;;;;4967130;28;20426;-83
2022/01/23 10:05:16;;;;;;;186.23;75.77;;;;;;;;;;4953622;28;20537;-83
2022/01/23 10:07:43;;;;;;;166.17;70.90;;;;;;;;;;4953280;28;20468;-83
2022/01/23 10:10:13;;;;;;;189.00;78.33;;;;;;;;;;4953551;28;20418;-82
2022/01/23 10:12:45;;;;;;;171.93;73.13;;;;;;;;;;4954106;28;20521;-82
2022/01/23 10:15:12;;;;;;;181.83;75.97;;;;;;;;;;4951708;28;20434;-82
2022/01/23 10:17:38;;;;;;;172.60;74.23;;;;;;;;;;4949780;28;20445;-81
2022/01/23 10:20:05;;;;;;;168.63;71.00;;;;;;;;;;4950588;28;20528;-82
2022/01/23 10:22:33;;;;;;;167.73;73.63;;;;;;;;;;4954277;28;20600;-82
2022/01/23 10:25:07;;;;;;;190.13;79.77;;;;;;;;;;4967993;28;20441;-82
2022/01/23 10:27:52;;;;;;;164.63;72.17;;;;;;;;;;4949933;28;20482;-82
2022/01/23 10:30:23;;;;;;;157.13;69.80;;;;;;;;;;4954652;28;20430;-82
2022/01/23 10:33:08;;;;;;;150.97;68.47;;;;;;;;;;4954400;28;20445;-82
2022/01/23 10:35:35;;;;;;;167.73;69.47;;;;;;;;;;4952132;28;20424;-82
2022/01/23 10:38:06;;;;;;;152.67;67.83;;;;;;;;;;4952475;28;20422;-82
2022/01/23 10:40:34;;;;;;;171.30;70.83;;;;;;;;;;4967708;28;20434;-82
2022/01/23 10:46:38;;;;;;;152.30;69.93;;;;;;;;;;4954234;28;21162;-83
2022/01/23 10:48:42;;;;;;;142.97;66.80;;;;;;;;;;4953927;28;20507;-81
2022/01/23 10:51:22;;;;;;;152.50;67.93;;;;;;;;;;4970234;28;20544;-81
2022/01/23 10:54:22;;;;;;;168.00;72.53;;;;;;;;;;4951020;28;21310;-82
2022/01/23 10:56:59;;;;;;;162.07;69.67;;;;;;;;;;4956687;28;20470;-82
2022/01/23 10:59:26;;;;;;;174.33;76.93;;;;;;;;;;4951586;28;20464;-82
2022/01/23 11:02:04;;;;;;;175.13;77.23;;;;;;;;;;4953162;28;20429;-82
2022/01/23 11:04:30;;;;;;;157.07;72.43;;;;;;;;;;4952164;28;20426;-82
2022/01/23 11:07:01;;;;;;;178.93;77.73;;;;;;;;;;4967683;28;20461;-81
2022/01/23 11:09:37;;;;;;;157.73;71.23;;;;;;;;;;4951405;28;20417;-82
2022/01/23 11:12:25;;;;;;;156.53;71.43;;;;;;;;;;4951744;28;20421;-82
2022/01/23 11:17:51;;;;;;;147.77;68.03;;;;;;;;;;4950865;28;21550;-82
2022/01/23 11:20:35;;;;;;;149.20;67.67;;;;;;;;;;4951239;28;21005;-82
2022/01/23 11:23:11;;;;;;;155.97;69.47;;;;;;;;;;4946918;28;20430;-83
2022/01/23 11:25:38;;;;;;;141.63;66.17;;;;;;;;;;4952911;28;20442;-82
2022/01/23 11:28:05;;;;;;;140.00;66.13;;;;;;;;;;4953910;28;20458;-82
2022/01/23 11:30:57;;;;;;;129.33;63.40;;;;;;;;;;4966278;28;20427;-83
2022/01/23 11:33:23;;;;;;;132.97;62.20;;;;;;;;;;4952462;28;20426;-82
2022/01/23 11:35:49;;;;;;;129.30;61.97;;;;;;;;;;4948947;28;20434;-82
2022/01/23 11:38:19;;;;;;;142.90;70.20;;;;;;;;;;4952242;28;20430;-81
2022/01/23 11:54:01;;;;;;;154.40;75.43;;;;;;;;;;4951457;28;20430;-79
2022/01/23 11:56:31;;;;;;;144.47;72.77;;;;;;;;;;4929934;28;20464;-78
2022/01/23 11:59:10;;;;;;;162.40;77.03;;;;;;;;;;4951189;28;21226;-78
2022/01/23 12:01:39;;;;;;;166.83;78.27;;;;;;;;;;4948145;28;20426;-79
2022/01/23 12:04:05;;;;;;;171.13;82.23;;;;;;;;;;4947782;28;20422;-79
2022/01/23 12:06:31;;;;;;;191.67;85.17;;;;;;;;;;4951268;28;21118;-79
2022/01/23 12:09:10;;;;;;;190.90;90.63;;;;;;;;;;4949747;28;20503;-79
2022/01/23 12:11:47;;;;;;;195.00;88.63;;;;;;;;;;4948224;28;20866;-81
2022/01/23 12:16:57;;;;;;;211.47;94.37;;;;;;;;;;4952187;28;21409;-79
2022/01/23 12:19:24;;;;;;;212.60;93.97;;;;;;;;;;4951989;28;20422;-80
2022/01/23 12:21:53;;;;;;;246.70;101.07;;;;;;;;;;4951714;28;20438;-80
2022/01/23 12:24:20;;;;;;;215.60;95.03;;;;;;;;;;4952623;28;21213;-80
2022/01/23 12:26:47;;;;;;;215.43;92.40;;;;;;;;;;4954132;28;21400;-80
2022/01/23 12:29:14;;;;;;;200.97;91.57;;;;;;;;;;4955847;28;20492;-80
2022/01/23 12:31:41;;;;;;;213.17;93.20;;;;;;;;;;4954549;28;21283;-80
2022/01/23 12:34:08;;;;;;;206.57;92.30;;;;;;;;;;4954394;28;20536;-81
2022/01/23 12:36:35;;;;;;;224.50;97.23;;;;;;;;;;4956857;28;20450;-81
2022/01/23 12:39:08;;;;;;;259.53;105.90;;;;;;;;;;4956466;28;20452;-81
2022/01/23 12:41:35;;;;;;;219.17;96.07;;;;;;;;;;4955426;28;20570;-81
2022/01/23 12:44:28;;;;;;;223.30;95.77;;;;;;;;;;4955183;28;20451;-81
2022/01/23 12:47:02;;;;;;;246.90;102.27;;;;;;;;;;4951872;28;20453;-81
2022/01/23 12:49:36;;;;;;;233.67;99.20;;;;;;;;;;4954148;28;20588;-80
2022/01/23 12:52:09;;;;;;;219.23;97.77;;;;;;;;;;4952010;28;20421;-80
2022/01/23 12:54:47;;;;;;;209.87;96.90;;;;;;;;;;4969192;28;21223;-80
2022/01/23 12:57:18;;;;;;;241.50;103.97;;;;;;;;;;4953360;28;20421;-81
2022/01/23 12:59:51;;;;;;;261.77;106.40;;;;;;;;;;4949752;28;21255;-81
2022/01/23 13:02:19;;;;;;;231.50;99.63;;;;;;;;;;4952952;28;20419;-80
2022/01/23 13:04:47;;;;;;;224.83;100.10;;;;;;;;;;4950918;28;20696;-81
2022/01/23 13:07:21;;;;;;;229.27;101.57;;;;;;;;;;4948808;28;20454;-82
2022/01/23 13:14:52;;;;;;;258.13;108.43;;;;;;;;;;4951653;28;20434;-81
2022/01/23 13:17:47;;;;;;;236.83;103.77;;;;;;;;;;4952415;28;20427;-80
2022/01/23 13:31:19;;;;;;;251.10;104.17;;;;;;;;;;4950538;28;20430;-81
2022/01/23 13:33:45;;;;;;;232.53;102.40;;;;;;;;;;4949560;28;20438;-81
2022/01/23 13:36:13;;;;;;;231.70;99.63;;;;;;;;;;4964889;28;21499;-81
2022/01/23 13:38:40;;;;;;;212.67;98.67;;;;;;;;;;4946764;28;20449;-81
2022/01/23 13:41:22;;;;;;;237.97;104.97;;;;;;;;;;4950617;28;20434;-81
2022/01/23 13:52:26;;;;;;;221.73;98.30;;;;;;;;;;4950955;28;21030;-80
2022/01/23 13:58:08;;;;;;;216.63;98.90;;;;;;;;;;4943631;28;20481;-81
2022/01/23 14:00:32;;;;;;;204.13;94.63;;;;;;;;;;4947178;28;20445;-81
2022/01/23 14:02:59;;;;;;;218.10;96.07;;;;;;;;;;4964718;28;20430;-80
2022/01/23 14:05:30;;;;;;;209.67;90.67;;;;;;;;;;4963242;28;21411;-80
2022/01/23 14:07:57;;;;;;;204.17;93.50;;;;;;;;;;4947355;28;21100;-80
2022/01/23 14:10:30;;;;;;;214.90;95.90;;;;;;;;;;4949676;28;20541;-80
2022/01/23 14:13:25;;;;;;;218.87;96.20;;;;;;;;;;4952002;28;20426;-80
2022/01/23 14:15:52;;;;;;;209.23;94.63;;;;;;;;;;4932680;28;21298;-80
2022/01/23 14:18:22;;;;;;;205.83;94.03;;;;;;;;;;4951576;28;20872;-80
2022/01/23 14:20:58;;;;;;;237.43;101.47;;;;;;;;;;4949671;28;21029;-80
2022/01/23 14:23:25;;;;;;;198.10;88.23;;;;;;;;;;4952471;28;20440;-80
2022/01/23 14:25:57;;;;;;;213.17;99.63;;;;;;;;;;4948503;28;20437;-81
2022/01/23 14:28:24;;;;;;;198.53;94.83;;;;;;;;;;4949267;28;20457;-81
2022/01/23 14:30:55;;;;;;;201.40;95.80;;;;;;;;;;4948295;28;20425;-80
2022/01/23 14:33:24;;;;;;;195.80;94.97;;;;;;;;;;4947448;28;21100;-81
2022/01/23 14:35:51;;;;;;;199.47;94.47;;;;;;;;;;4949469;28;20430;-80
2022/01/23 14:38:22;;;;;;;200.50;95.07;;;;;;;;;;4947696;28;20542;-79
2022/01/23 14:40:52;;;;;;;197.57;93.93;;;;;;;;;;4964497;28;20438;-81
2022/01/23 14:43:18;;;;;;;228.27;104.83;;;;;;;;;;4950812;28;20443;-80
2022/01/23 14:45:48;;;;;;;219.93;100.97;;;;;;;;;;4950317;28;20433;-79
2022/01/23 14:48:15;;;;;;;202.53;98.30;;;;;;;;;;4944835;28;20548;-79
2022/01/23 14:50:51;;;;;;;206.80;98.83;;;;;;;;;;4947443;28;20660;-80
2022/01/23 14:53:19;;;;;;;227.30;104.37;;;;;;;;;;4949354;28;20426;-80
2022/01/23 14:55:48;;;;;;;230.13;103.97;;;;;;;;;;4949257;28;20462;-80
2022/01/23 14:58:23;;;;;;;236.30;107.70;;;;;;;;;;4952579;28;20450;-83
2022/01/23 15:00:50;;;;;;;223.87;100.50;;;;;;;;;;4948088;28;21399;-81
2022/01/23 15:03:17;;;;;;;239.87;105.73;;;;;;;;;;4947300;28;20434;-80
2022/01/23 15:05:43;;;;;;;247.73;108.33;;;;;;;;;;4965741;28;20426;-81
2022/01/23 15:08:11;;;;;;;243.20;104.97;;;;;;;;;;4949231;28;20451;-80
2022/01/23 15:10:38;;;;;;;205.80;97.23;;;;;;;;;;4950344;28;20461;-80
2022/01/23 15:13:04;;;;;;;212.70;99.73;;;;;;;;;;4945735;28;20444;-81
2022/01/23 15:15:31;;;;;;;247.13;105.03;;;;;;;;;;4948741;28;20434;-81
2022/01/23 15:17:57;;;;;;;205.37;95.67;;;;;;;;;;4945472;28;21178;-81
2022/01/23 15:20:23;;;;;;;235.57;102.03;;;;;;;;;;4945965;28;20426;-81
2022/01/23 15:22:50;;;;;;;235.53;102.63;;;;;;;;;;4963017;28;20486;-81
2022/01/23 15:25:18;;;;;;;232.20;100.90;;;;;;;;;;4947919;28;20418;-81
2022/01/23 15:27:44;;;;;;;247.73;105.27;;;;;;;;;;4948145;28;21102;-82
2022/01/23 15:30:12;;;;;;;253.87;106.20;;;;;;;;;;4946738;28;20437;-82
2022/01/23 15:32:39;;;;;;;256.57;108.03;;;;;;;;;;4947693;28;20434;-82
2022/01/23 15:35:06;;;;;;;270.07;111.40;;;;;;;;;;4949449;28;20903;-82
2022/01/23 15:37:32;;;;;;;289.60;120.30;;;;;;;;;;4945257;28;20441;-81
2022/01/23 15:40:01;;;;;;;245.60;103.43;;;;;;;;;;4963921;28;20464;-82
2022/01/23 15:42:28;;;;;;;310.90;115.77;;;;;;;;;;4964777;28;20484;-82
2022/01/23 15:44:54;;;;;;;244.40;108.17;;;;;;;;;;4953143;28;20434;-82
2022/01/23 15:47:20;;;;;;;293.27;113.17;;;;;;;;;;4965280;28;20556;-82
2022/01/23 15:49:47;;;;;;;281.90;115.10;;;;;;;;;;4951075;28;20426;-82
2022/01/23 15:52:13;;;;;;;311.97;119.23;;;;;;;;;;4950268;28;20429;-82
2022/01/23 15:54:39;;;;;;;276.43;108.67;;;;;;;;;;4947853;28;20688;-80
2022/01/23 15:57:07;;;;;;;284.30;112.20;;;;;;;;;;4948615;28;20427;-80
2022/01/23 15:59:35;;;;;;;271.33;109.23;;;;;;;;;;4948409;28;20435;-82
2022/01/23 16:02:02;;;;;;;305.83;116.37;;;;;;;;;;4959890;28;21102;-81
2022/01/23 16:04:32;;;;;;;299.13;114.73;;;;;;;;;;4941057;28;20439;-81
2022/01/23 16:06:59;;;;;;;303.83;121.70;;;;;;;;;;4946836;28;20476;-81
2022/01/23 16:09:25;;;;;;;315.80;116.73;;;;;;;;;;4948830;28;20425;-80
2022/01/23 16:11:53;;;;;;;280.23;111.53;;;;;;;;;;4946762;28;20543;-80
2022/01/23 16:14:20;;;;;;;329.37;120.37;;;;;;;;;;4960610;28;20422;-81
2022/01/23 16:16:47;;;;;;;323.67;118.47;;;;;;;;;;4957696;28;20449;-81
2022/01/23 16:19:13;;;;;;;284.43;111.00;;;;;;;;;;4963606;28;20461;-81
2022/01/23 16:21:41;;;;;;;253.60;101.40;;;;;;;;;;4942859;28;20484;-80
2022/01/23 16:24:16;;;;;;;308.13;114.90;;;;;;;;;;4957400;28;20592;-81
2022/01/23 16:26:43;;;;;;;288.57;110.63;;;;;;;;;;4935130;28;20454;-81
2022/01/23 16:29:09;;;;;;;260.07;106.00;;;;;;;;;;4941843;28;20433;-82
2022/01/23 16:31:38;;;;;;;275.60;110.30;;;;;;;;;;4941036;28;20426;-82
2022/01/23 16:34:04;;;;;;;262.90;107.83;;;;;;;;;;4943819;28;21389;-82
2022/01/23 16:36:32;;;;;;;278.57;106.57;;;;;;;;;;4943581;28;20433;-81
2022/01/23 16:38:58;;;;;;;270.30;109.20;;;;;;;;;;4944112;28;20529;-81
2022/01/23 16:41:24;;;;;;;252.77;104.60;;;;;;;;;;4957248;28;20505;-81
2022/01/23 16:43:50;;;;;;;279.43;109.90;;;;;;;;;;4941123;28;20438;-81
2022/01/23 16:46:16;;;;;;;295.00;112.37;;;;;;;;;;4944194;28;20430;-81
2022/01/23 16:48:42;;;;;;;251.93;102.33;;;;;;;;;;4943979;28;20846;-81
2022/01/23 16:51:08;;;;;;;253.10;102.60;;;;;;;;;;4942733;28;20543;-81
2022/01/23 16:53:35;;;;;;;316.40;118.53;;;;;;;;;;4943623;28;20438;-81
2022/01/23 16:56:01;;;;;;;244.57;102.37;;;;;;;;;;4942350;28;21184;-81
2022/01/23 16:58:35;;;;;;;326.47;119.70;;;;;;;;;;4943879;28;20453;-80
2022/01/23 17:01:01;;;;;;;296.80;114.23;;;;;;;;;;4944328;28;20429;-81
2022/01/23 17:03:28;;;;;;;363.47;129.30;;;;;;;;;;4939221;28;20490;-79
2022/01/23 17:05:54;;;;;;;319.97;119.57;;;;;;;;;;4940909;28;20503;-80
2022/01/23 17:08:23;;;;;;;290.43;112.10;;;;;;;;;;4936045;28;20461;-81
2022/01/23 17:10:50;;;;;;;336.07;121.77;;;;;;;;;;4935904;28;20491;-79
2022/01/23 17:13:16;;;;;;;268.27;110.30;;;;;;;;;;4946449;28;20434;-79
2022/01/23 17:15:42;;;;;;;258.53;105.97;;;;;;;;;;4952503;28;20469;-80
2022/01/23 17:18:15;;;;;;;286.07;112.50;;;;;;;;;;4950674;28;20438;-80
2022/01/23 17:20:47;;;;;;;311.53;116.83;;;;;;;;;;4945903;28;20441;-81
2022/01/23 17:23:13;;;;;;;254.13;106.43;;;;;;;;;;4948441;28;21099;-81
2022/01/23 17:25:40;;;;;;;277.73;111.50;;;;;;;;;;4946407;28;20430;-81
2022/01/23 17:28:06;;;;;;;240.90;103.20;;;;;;;;;;4942385;28;20457;-81